createdAt,value
2018-05-24T00:00:05.508Z,16.20
2018-05-24T00:01:08.883Z,16.20
2018-05-24T00:02:05.474Z,16.20
2018-05-24T00:03:05.250Z,16.20
2018-05-24T00:04:06.461Z,16.20
2018-05-24T00:05:07.735Z,16.20
2018-05-24T00:06:05.435Z,16.20
2018-05-24T00:07:06.079Z,16.20
2018-05-24T00:08:05.737Z,16.20
2018-05-24T00:09:05.341Z,16.20
2018-05-24T00:10:08.099Z,16.20
2018-05-24T00:11:06.079Z,16.20
2018-05-24T00:12:06.283Z,16.20
2018-05-24T00:13:06.158Z,16.20
2018-05-24T00:14:06.288Z,16.20
2018-05-24T00:15:05.337Z,16.20
2018-05-24T00:16:05.907Z,16.20
2018-05-24T00:17:06.066Z,16.20
2018-05-24T00:18:05.991Z,16.20
2018-05-24T00:19:06.076Z,16.20
2018-05-24T00:20:10.832Z,16.30
2018-05-24T00:21:05.375Z,16.30
2018-05-24T00:22:13.370Z,16.30
2018-05-24T00:23:10.921Z,16.30
2018-05-24T00:24:05.400Z,16.30
2018-05-24T00:25:11.152Z,16.30
2018-05-24T00:26:10.634Z,16.30
2018-05-24T00:27:05.268Z,16.30
2018-05-24T00:28:06.019Z,16.30
2018-05-24T00:29:05.214Z,16.30
2018-05-24T00:30:05.951Z,16.30
2018-05-24T00:31:08.754Z,16.30
2018-05-24T00:32:05.762Z,16.30
2018-05-24T00:33:08.725Z,16.20
2018-05-24T00:34:07.798Z,16.20
2018-05-24T00:35:07.905Z,16.30
2018-05-24T00:36:08.153Z,16.20
2018-05-24T00:37:05.660Z,16.20
2018-05-24T00:38:07.933Z,16.20
2018-05-24T00:39:08.119Z,16.20
2018-05-24T00:40:05.805Z,16.20
2018-05-24T00:41:07.979Z,16.20
2018-05-24T00:42:10.565Z,16.20
2018-05-24T00:43:06.531Z,16.20
2018-05-24T00:44:07.683Z,16.20
2018-05-24T00:45:07.740Z,16.20
2018-05-24T00:46:05.189Z,16.20
2018-05-24T00:47:08.730Z,16.20
2018-05-24T00:48:05.419Z,16.20
2018-05-24T00:49:08.802Z,16.20
2018-05-24T00:50:05.560Z,16.20
2018-05-24T00:51:05.357Z,16.20
2018-05-24T00:52:06.156Z,16.20
2018-05-24T00:53:05.899Z,16.20
2018-05-24T00:54:06.024Z,16.20
2018-05-24T00:55:05.477Z,16.20
2018-05-24T00:56:07.903Z,16.10
2018-05-24T00:57:05.507Z,16.10
2018-05-24T00:58:07.890Z,16.10
2018-05-24T00:59:08.064Z,16.10
2018-05-24T01:00:05.212Z,16.10
2018-05-24T01:01:08.570Z,16.10
2018-05-24T01:02:08.210Z,16.10
2018-05-24T01:03:05.750Z,16.00
2018-05-24T01:04:05.398Z,16.00
2018-05-24T01:05:08.612Z,16.00
2018-05-24T01:06:06.130Z,16.00
2018-05-24T01:07:08.378Z,16.00
2018-05-24T01:08:08.400Z,16.00
2018-05-24T01:09:06.173Z,16.00
2018-05-24T01:10:08.409Z,16.00
2018-05-24T01:11:08.610Z,15.90
2018-05-24T01:12:05.143Z,16.00
2018-05-24T01:13:08.448Z,15.90
2018-05-24T01:14:06.145Z,15.90
2018-05-24T01:15:05.128Z,15.90
2018-05-24T01:16:11.441Z,15.90
2018-05-24T01:17:08.605Z,15.90
2018-05-24T01:18:08.707Z,15.90
2018-05-24T01:19:05.317Z,15.90
2018-05-24T01:20:05.612Z,15.90
2018-05-24T01:21:05.653Z,15.90
2018-05-24T01:22:08.124Z,15.80
2018-05-24T01:23:06.012Z,15.90
2018-05-24T01:24:10.805Z,15.90
2018-05-24T01:25:08.496Z,15.80
2018-05-24T01:26:06.004Z,15.80
2018-05-24T01:27:05.448Z,15.90
2018-05-24T01:28:05.478Z,15.80
2018-05-24T01:29:08.781Z,15.80
2018-05-24T01:30:05.437Z,15.80
2018-05-24T01:31:06.195Z,15.80
2018-05-24T01:32:05.773Z,15.80
2018-05-24T01:33:05.641Z,15.80
2018-05-24T01:34:08.187Z,15.80
2018-05-24T01:35:05.905Z,15.80
2018-05-24T01:36:05.556Z,15.80
2018-05-24T01:37:05.274Z,15.90
2018-05-24T01:38:05.876Z,15.80
2018-05-24T01:39:05.657Z,15.80
2018-05-24T01:40:08.079Z,15.80
2018-05-24T01:41:05.634Z,15.90
2018-05-24T01:42:05.401Z,15.80
2018-05-24T01:43:06.269Z,15.80
2018-05-24T01:44:05.955Z,15.80
2018-05-24T01:45:10.813Z,15.80
2018-05-24T01:46:05.207Z,15.80
2018-05-24T01:47:08.362Z,15.80
2018-05-24T01:48:05.983Z,15.80
2018-05-24T01:49:05.688Z,15.80
2018-05-24T01:50:15.630Z,15.90
2018-05-24T01:51:05.656Z,15.80
2018-05-24T01:52:07.997Z,15.80
2018-05-24T01:53:08.100Z,15.90
2018-05-24T01:54:08.140Z,15.80
2018-05-24T01:55:05.620Z,15.80
2018-05-24T01:56:08.280Z,15.80
2018-05-24T01:57:05.849Z,15.80
2018-05-24T01:58:05.687Z,15.80
2018-05-24T01:59:08.565Z,15.80
2018-05-24T02:00:10.907Z,15.80
2018-05-24T02:01:05.456Z,15.80
2018-05-24T02:02:07.781Z,15.80
2018-05-24T02:03:08.044Z,15.80
2018-05-24T02:04:05.568Z,15.80
2018-05-24T02:05:08.177Z,15.80
2018-05-24T02:06:10.719Z,15.80
2018-05-24T02:07:05.406Z,15.80
2018-05-24T02:08:05.603Z,15.80
2018-05-24T02:09:07.905Z,15.80
2018-05-24T02:10:05.834Z,15.80
2018-05-24T02:11:08.058Z,15.80
2018-05-24T02:12:05.541Z,15.80
2018-05-24T02:13:07.793Z,15.80
2018-05-24T02:14:05.413Z,15.80
2018-05-24T02:15:06.679Z,15.80
2018-05-24T02:16:06.349Z,15.80
2018-05-24T02:17:08.744Z,15.90
2018-05-24T02:18:10.253Z,15.90
2018-05-24T02:19:10.908Z,15.80
2018-05-24T02:20:05.977Z,15.90
2018-05-24T02:21:08.121Z,15.80
2018-05-24T02:22:05.581Z,15.90
2018-05-24T02:23:10.453Z,15.90
2018-05-24T02:24:05.703Z,15.80
2018-05-24T02:25:05.882Z,15.90
2018-05-24T02:26:05.863Z,15.90
2018-05-24T02:27:08.441Z,15.90
2018-05-24T02:28:06.083Z,15.90
2018-05-24T02:29:06.040Z,15.90
2018-05-24T02:30:08.302Z,15.90
2018-05-24T02:31:08.479Z,15.90
2018-05-24T02:32:08.560Z,15.90
2018-05-24T02:33:06.432Z,15.90
2018-05-24T02:34:08.766Z,15.90
2018-05-24T02:35:07.829Z,15.90
2018-05-24T02:36:05.689Z,15.90
2018-05-24T02:37:08.548Z,15.90
2018-05-24T02:38:08.767Z,15.90
2018-05-24T02:39:05.274Z,15.90
2018-05-24T02:40:05.266Z,15.90
2018-05-24T02:41:08.875Z,15.90
2018-05-24T02:42:08.452Z,15.90
2018-05-24T02:43:06.301Z,15.90
2018-05-24T02:44:06.117Z,15.90
2018-05-24T02:45:05.869Z,15.90
2018-05-24T02:46:06.300Z,15.90
2018-05-24T02:47:10.423Z,16.00
2018-05-24T02:48:05.979Z,16.00
2018-05-24T02:49:05.656Z,15.90
2018-05-24T02:50:05.406Z,16.00
2018-05-24T02:51:05.213Z,16.00
2018-05-24T02:52:08.593Z,16.00
2018-05-24T02:53:08.497Z,16.00
2018-05-24T02:54:06.177Z,16.00
2018-05-24T02:55:11.062Z,15.90
2018-05-24T02:56:05.925Z,16.00
2018-05-24T02:57:08.276Z,16.00
2018-05-24T02:58:05.789Z,16.00
2018-05-24T02:59:05.661Z,16.00
2018-05-24T03:00:08.043Z,16.00
2018-05-24T03:01:05.562Z,15.90
2018-05-24T03:02:05.400Z,15.90
2018-05-24T03:03:06.571Z,15.90
2018-05-24T03:04:05.227Z,15.90
2018-05-24T03:05:10.864Z,15.90
2018-05-24T03:06:05.607Z,15.90
2018-05-24T03:07:05.565Z,15.90
2018-05-24T03:08:10.526Z,15.90
2018-05-24T03:09:08.647Z,15.90
2018-05-24T03:10:10.207Z,15.90
2018-05-24T03:11:05.749Z,15.90
2018-05-24T03:12:08.013Z,15.90
2018-05-24T03:13:05.758Z,15.90
2018-05-24T03:14:05.816Z,15.90
2018-05-24T03:15:13.178Z,15.90
2018-05-24T03:16:06.220Z,15.90
2018-05-24T03:17:05.970Z,15.90
2018-05-24T03:18:05.574Z,15.90
2018-05-24T03:19:05.294Z,15.90
2018-05-24T03:20:05.922Z,15.90
2018-05-24T03:21:15.206Z,15.90
2018-05-24T03:22:08.206Z,15.90
2018-05-24T03:23:08.294Z,15.90
2018-05-24T03:24:06.181Z,15.90
2018-05-24T03:25:06.000Z,15.90
2018-05-24T03:26:06.080Z,15.90
2018-05-24T03:27:08.309Z,15.90
2018-05-24T03:28:06.331Z,15.80
2018-05-24T03:29:05.580Z,15.80
2018-05-24T03:30:05.892Z,15.80
2018-05-24T03:31:05.601Z,15.80
2018-05-24T03:32:08.001Z,15.80
2018-05-24T03:33:05.262Z,15.80
2018-05-24T03:34:07.746Z,15.80
2018-05-24T03:35:05.577Z,15.80
2018-05-24T03:36:05.953Z,15.80
2018-05-24T03:37:06.160Z,15.80
2018-05-24T03:38:05.820Z,15.80
2018-05-24T03:39:08.538Z,15.70
2018-05-24T03:40:06.127Z,15.70
2018-05-24T03:41:08.228Z,15.70
2018-05-24T03:42:13.512Z,15.70
2018-05-24T03:43:06.008Z,15.70
2018-05-24T03:44:08.156Z,15.70
2018-05-24T03:45:08.539Z,15.70
2018-05-24T03:46:08.035Z,15.70
2018-05-24T03:47:10.753Z,15.60
2018-05-24T03:48:10.315Z,15.60
2018-05-24T03:49:11.910Z,15.60
2018-05-24T03:50:10.579Z,15.70
2018-05-24T03:51:10.643Z,15.70
2018-05-24T03:52:08.800Z,15.70
2018-05-24T03:53:08.036Z,15.60
2018-05-24T03:54:05.598Z,15.60
2018-05-24T03:55:05.536Z,15.70
2018-05-24T03:56:07.985Z,15.70
2018-05-24T03:57:07.977Z,15.70
2018-05-24T03:58:05.526Z,15.60
2018-05-24T03:59:05.681Z,15.70
2018-05-24T04:00:05.246Z,15.70
2018-05-24T04:01:08.080Z,15.70
2018-05-24T04:02:05.665Z,15.70
2018-05-24T04:03:11.171Z,15.70
2018-05-24T04:04:08.274Z,15.60
2018-05-24T04:05:05.402Z,15.60
2018-05-24T04:06:05.730Z,15.70
2018-05-24T04:07:05.468Z,15.70
2018-05-24T04:08:11.385Z,15.60
2018-05-24T04:09:08.820Z,15.70
2018-05-24T04:10:06.076Z,15.60
2018-05-24T04:11:06.037Z,15.70
2018-05-24T04:12:08.229Z,15.60
2018-05-24T04:13:05.704Z,15.60
2018-05-24T04:14:05.537Z,15.60
2018-05-24T04:15:05.534Z,15.60
2018-05-24T04:16:06.217Z,15.60
2018-05-24T04:17:05.827Z,15.60
2018-05-24T04:18:10.645Z,15.60
2018-05-24T04:19:08.517Z,15.60
2018-05-24T04:20:05.900Z,15.60
2018-05-24T04:21:05.483Z,15.60
2018-05-24T04:22:06.074Z,15.60
2018-05-24T04:23:06.258Z,15.60
2018-05-24T04:24:11.055Z,15.60
2018-05-24T04:25:08.386Z,15.60
2018-05-24T04:26:11.023Z,15.60
2018-05-24T04:27:08.670Z,15.60
2018-05-24T04:28:07.825Z,15.60
2018-05-24T04:29:05.691Z,15.60
2018-05-24T04:30:05.355Z,15.60
2018-05-24T04:31:08.580Z,15.70
2018-05-24T04:32:05.161Z,15.60
2018-05-24T04:33:05.941Z,15.60
2018-05-24T04:34:05.717Z,15.60
2018-05-24T04:35:08.129Z,15.60
2018-05-24T04:36:07.780Z,15.60
2018-05-24T04:37:08.446Z,15.60
2018-05-24T04:38:06.068Z,15.60
2018-05-24T04:39:05.927Z,15.60
2018-05-24T04:40:05.627Z,15.70
2018-05-24T04:41:08.237Z,15.70
2018-05-24T04:42:08.433Z,15.60
2018-05-24T04:43:05.839Z,15.60
2018-05-24T04:44:05.336Z,15.60
2018-05-24T04:45:06.026Z,15.60
2018-05-24T04:46:13.151Z,15.60
2018-05-24T04:47:10.781Z,15.60
2018-05-24T04:48:05.882Z,15.60
2018-05-24T04:49:08.122Z,15.60
2018-05-24T04:50:13.143Z,15.60
2018-05-24T04:51:08.238Z,15.60
2018-05-24T04:52:08.289Z,15.60
2018-05-24T04:53:05.960Z,15.60
2018-05-24T04:54:09.022Z,15.60
2018-05-24T04:55:08.103Z,15.60
2018-05-24T04:56:08.140Z,15.60
2018-05-24T04:57:05.673Z,15.60
2018-05-24T04:58:10.541Z,15.50
2018-05-24T04:59:05.732Z,15.50
2018-05-24T05:00:08.013Z,15.50
2018-05-24T05:01:05.495Z,15.50
2018-05-24T05:02:06.355Z,15.60
2018-05-24T05:03:06.017Z,15.50
2018-05-24T05:04:05.562Z,15.50
2018-05-24T05:05:05.233Z,15.60
2018-05-24T05:06:13.663Z,15.60
2018-05-24T05:07:05.326Z,15.60
2018-05-24T05:08:05.361Z,15.60
2018-05-24T05:09:06.252Z,15.60
2018-05-24T05:10:05.819Z,15.50
2018-05-24T05:11:05.787Z,15.60
2018-05-24T05:12:05.498Z,15.60
2018-05-24T05:13:05.950Z,15.60
2018-05-24T05:14:05.557Z,15.50
2018-05-24T05:15:07.863Z,15.60
2018-05-24T05:16:06.021Z,15.60
2018-05-24T05:17:05.664Z,15.60
2018-05-24T05:18:05.368Z,15.60
2018-05-24T05:19:11.090Z,15.60
2018-05-24T05:20:05.666Z,15.60
2018-05-24T05:21:10.430Z,15.60
2018-05-24T05:22:08.490Z,15.70
2018-05-24T05:23:06.077Z,15.70
2018-05-24T05:24:06.191Z,15.60
2018-05-24T05:25:07.991Z,15.60
2018-05-24T05:26:06.697Z,15.60
2018-05-24T05:27:11.426Z,15.70
2018-05-24T05:28:08.559Z,15.70
2018-05-24T05:29:05.704Z,15.70
2018-05-24T05:30:06.682Z,15.60
2018-05-24T05:31:07.885Z,15.70
2018-05-24T05:32:08.089Z,15.70
2018-05-24T05:33:05.843Z,15.70
2018-05-24T05:34:08.431Z,15.70
2018-05-24T05:35:05.255Z,15.70
2018-05-24T05:36:07.043Z,15.70
2018-05-24T05:37:05.716Z,15.80
2018-05-24T05:38:08.273Z,15.80
2018-05-24T05:39:08.395Z,15.80
2018-05-24T05:40:08.479Z,15.80
2018-05-24T05:41:06.048Z,15.80
2018-05-24T05:42:08.053Z,15.80
2018-05-24T05:43:05.938Z,15.80
2018-05-24T05:44:05.482Z,15.80
2018-05-24T05:45:05.309Z,15.80
2018-05-24T05:46:08.570Z,15.80
2018-05-24T05:47:06.088Z,15.80
2018-05-24T05:48:08.489Z,15.80
2018-05-24T05:49:09.244Z,15.80
2018-05-24T05:50:05.851Z,15.80
2018-05-24T05:51:05.309Z,15.80
2018-05-24T05:52:06.103Z,15.90
2018-05-24T05:53:08.489Z,15.90
2018-05-24T05:54:11.052Z,15.90
2018-05-24T05:55:05.580Z,15.90
2018-05-24T05:56:05.521Z,15.90
2018-05-24T05:57:05.389Z,15.90
2018-05-24T05:58:06.633Z,15.90
2018-05-24T05:59:05.942Z,16.00
2018-05-24T06:00:05.887Z,16.00
2018-05-24T06:01:08.241Z,16.00
2018-05-24T06:02:08.296Z,16.00
2018-05-24T06:03:08.309Z,16.00
2018-05-24T06:04:09.591Z,16.00
2018-05-24T06:05:06.210Z,16.00
2018-05-24T06:06:05.819Z,16.00
2018-05-24T06:07:08.627Z,16.00
2018-05-24T06:08:11.034Z,16.00
2018-05-24T06:09:08.182Z,16.00
2018-05-24T06:10:10.729Z,16.00
2018-05-24T06:11:05.907Z,16.00
2018-05-24T06:12:06.255Z,16.00
2018-05-24T06:13:05.726Z,16.00
2018-05-24T06:14:05.269Z,16.00
2018-05-24T06:15:10.304Z,16.00
2018-05-24T06:16:05.781Z,16.00
2018-05-24T06:17:06.686Z,16.10
2018-05-24T06:18:07.803Z,16.00
2018-05-24T06:19:07.822Z,16.10
2018-05-24T06:20:05.261Z,16.00
2018-05-24T06:21:06.181Z,16.00
2018-05-24T06:22:05.873Z,16.10
2018-05-24T06:23:05.647Z,16.10
2018-05-24T06:24:08.344Z,16.00
2018-05-24T06:25:05.824Z,16.10
2018-05-24T06:26:05.831Z,16.10
2018-05-24T06:27:06.079Z,16.10
2018-05-24T06:28:06.040Z,16.10
2018-05-24T06:29:05.178Z,16.10
2018-05-24T06:30:07.842Z,16.10
2018-05-24T06:31:05.294Z,16.10
2018-05-24T06:32:08.605Z,16.10
2018-05-24T06:33:08.153Z,16.10
2018-05-24T06:34:05.611Z,16.10
2018-05-24T06:35:06.217Z,16.20
2018-05-24T06:36:08.295Z,16.20
2018-05-24T06:37:06.949Z,16.10
2018-05-24T06:38:08.147Z,16.20
2018-05-24T06:39:06.201Z,16.20
2018-05-24T06:40:06.018Z,16.20
2018-05-24T06:41:08.223Z,16.20
2018-05-24T06:42:08.785Z,16.20
2018-05-24T06:43:05.614Z,16.20
2018-05-24T06:44:05.525Z,16.20
2018-05-24T06:45:06.151Z,16.20
2018-05-24T06:46:05.850Z,16.20
2018-05-24T06:47:10.760Z,16.30
2018-05-24T06:48:05.879Z,16.30
2018-05-24T06:49:06.189Z,16.30
2018-05-24T06:50:05.948Z,16.30
2018-05-24T06:51:06.228Z,16.30
2018-05-24T06:52:05.476Z,16.30
2018-05-24T06:53:07.863Z,16.40
2018-05-24T06:54:05.708Z,16.40
2018-05-24T06:55:07.892Z,16.40
2018-05-24T06:56:08.529Z,16.40
2018-05-24T06:57:08.000Z,16.40
2018-05-24T06:58:06.124Z,16.50
2018-05-24T06:59:05.602Z,16.50
2018-05-24T07:00:05.254Z,16.50
2018-05-24T07:01:08.508Z,16.50
2018-05-24T07:02:08.779Z,16.50
2018-05-24T07:03:07.909Z,16.60
2018-05-24T07:04:05.692Z,16.50
2018-05-24T07:05:07.964Z,16.60
2018-05-24T07:06:06.160Z,16.50
2018-05-24T07:07:06.141Z,16.60
2018-05-24T07:08:08.370Z,16.60
2018-05-24T07:09:08.292Z,16.60
2018-05-24T07:10:05.784Z,16.60
2018-05-24T07:11:05.438Z,16.60
2018-05-24T07:12:06.292Z,16.50
2018-05-24T07:13:06.014Z,16.50
2018-05-24T07:14:10.953Z,16.50
2018-05-24T07:15:05.445Z,16.50
2018-05-24T07:16:05.147Z,16.50
2018-05-24T07:17:13.137Z,16.50
2018-05-24T07:18:08.397Z,16.50
2018-05-24T07:19:06.193Z,16.50
2018-05-24T07:20:06.131Z,16.50
2018-05-24T07:21:08.382Z,16.50
2018-05-24T07:22:05.856Z,16.40
2018-05-24T07:23:10.586Z,16.40
2018-05-24T07:24:06.447Z,16.40
2018-05-24T07:25:06.387Z,16.40
2018-05-24T07:26:11.150Z,16.40
2018-05-24T07:27:05.277Z,16.40
2018-05-24T07:28:05.181Z,16.40
2018-05-24T07:29:05.789Z,16.40
2018-05-24T07:30:05.919Z,16.40
2018-05-24T07:31:05.959Z,16.40
2018-05-24T07:32:06.031Z,16.40
2018-05-24T07:33:08.454Z,16.40
2018-05-24T07:34:05.991Z,16.40
2018-05-24T07:35:05.171Z,16.40
2018-05-24T07:36:05.531Z,16.40
2018-05-24T07:37:05.586Z,16.40
2018-05-24T07:38:05.388Z,16.40
2018-05-24T07:39:06.045Z,16.40
2018-05-24T07:40:08.374Z,16.40
2018-05-24T07:41:08.653Z,16.40
2018-05-24T07:42:08.814Z,16.40
2018-05-24T07:43:05.373Z,16.40
2018-05-24T07:44:06.034Z,16.50
2018-05-24T07:45:08.592Z,16.50
2018-05-24T07:46:05.208Z,16.50
2018-05-24T07:47:05.810Z,16.50
2018-05-24T07:48:05.935Z,16.50
2018-05-24T07:49:05.720Z,16.50
2018-05-24T07:50:08.542Z,16.60
2018-05-24T07:51:06.070Z,16.60
2018-05-24T07:52:05.779Z,16.60
2018-05-24T07:53:10.921Z,16.70
2018-05-24T07:54:05.435Z,16.70
2018-05-24T07:55:06.650Z,16.70
2018-05-24T07:56:05.237Z,16.80
2018-05-24T07:57:05.314Z,16.80
2018-05-24T07:58:05.979Z,16.80
2018-05-24T07:59:06.009Z,16.90
2018-05-24T08:00:06.099Z,16.90
2018-05-24T08:01:06.048Z,16.90
2018-05-24T08:02:06.501Z,17.00
2018-05-24T08:03:08.295Z,17.00
2018-05-24T08:04:06.199Z,17.00
2018-05-24T08:05:10.449Z,17.00
2018-05-24T08:06:06.132Z,17.10
2018-05-24T08:07:08.737Z,17.10
2018-05-24T08:08:05.284Z,17.10
2018-05-24T08:09:08.436Z,17.10
2018-05-24T08:10:08.467Z,17.10
2018-05-24T08:11:09.361Z,17.10
2018-05-24T08:12:08.370Z,17.00
2018-05-24T08:13:06.013Z,17.00
2018-05-24T08:14:05.688Z,17.00
2018-05-24T08:15:08.212Z,16.90
2018-05-24T08:16:05.839Z,16.90
2018-05-24T08:17:08.625Z,16.90
2018-05-24T08:18:13.377Z,16.80
2018-05-24T08:19:08.047Z,16.80
2018-05-24T08:20:05.974Z,16.80
2018-05-24T08:21:05.985Z,16.80
2018-05-24T08:22:05.642Z,16.70
2018-05-24T08:23:08.444Z,16.70
2018-05-24T08:24:06.019Z,16.80
2018-05-24T08:25:05.768Z,16.70
2018-05-24T08:26:06.023Z,16.70
2018-05-24T08:27:05.712Z,16.70
2018-05-24T08:28:05.893Z,16.70
2018-05-24T08:29:05.674Z,16.70
2018-05-24T08:30:07.861Z,16.70
2018-05-24T08:31:05.398Z,16.70
2018-05-24T08:32:06.172Z,16.70
2018-05-24T08:33:06.095Z,16.70
2018-05-24T08:34:05.725Z,16.70
2018-05-24T08:35:06.031Z,16.70
2018-05-24T08:36:05.926Z,16.70
2018-05-24T08:37:06.057Z,16.70
2018-05-24T08:38:05.374Z,16.70
2018-05-24T08:39:08.094Z,16.60
2018-05-24T08:40:05.514Z,16.60
2018-05-24T08:41:07.929Z,16.60
2018-05-24T08:42:05.598Z,16.60
2018-05-24T08:43:09.271Z,16.60
2018-05-24T08:44:05.536Z,16.60
2018-05-24T08:45:05.290Z,16.60
2018-05-24T08:46:08.512Z,16.60
2018-05-24T08:47:08.732Z,16.60
2018-05-24T08:48:10.312Z,16.60
2018-05-24T08:49:05.916Z,16.60
2018-05-24T08:50:08.071Z,16.60
2018-05-24T08:51:05.568Z,16.60
2018-05-24T08:52:05.455Z,16.60
2018-05-24T08:53:10.972Z,16.60
2018-05-24T08:54:05.782Z,16.60
2018-05-24T08:55:10.611Z,16.60
2018-05-24T08:56:08.809Z,16.60
2018-05-24T08:57:06.365Z,16.60
2018-05-24T08:58:10.641Z,16.60
2018-05-24T08:59:05.370Z,16.60
2018-05-24T09:00:05.398Z,16.70
2018-05-24T09:01:05.751Z,16.70
2018-05-24T09:02:10.389Z,16.70
2018-05-24T09:03:05.958Z,16.70
2018-05-24T09:04:05.844Z,16.70
2018-05-24T09:05:05.778Z,16.70
2018-05-24T09:06:05.296Z,16.70
2018-05-24T09:07:08.076Z,16.70
2018-05-24T09:08:06.077Z,16.70
2018-05-24T09:09:05.779Z,16.70
2018-05-24T09:10:05.791Z,16.70
2018-05-24T09:11:05.728Z,16.70
2018-05-24T09:12:05.549Z,16.70
2018-05-24T09:13:07.853Z,16.70
2018-05-24T09:14:07.820Z,16.70
2018-05-24T09:15:05.227Z,16.80
2018-05-24T09:16:10.965Z,16.70
2018-05-24T09:17:05.633Z,16.70
2018-05-24T09:18:06.463Z,16.70
2018-05-24T09:19:08.621Z,16.70
2018-05-24T09:20:06.535Z,16.80
2018-05-24T09:21:05.197Z,16.80
2018-05-24T09:22:05.810Z,16.80
2018-05-24T09:23:05.998Z,16.80
2018-05-24T09:24:08.592Z,16.80
2018-05-24T09:25:08.822Z,16.80
2018-05-24T09:26:05.230Z,16.70
2018-05-24T09:27:05.932Z,16.80
2018-05-24T09:28:05.507Z,16.80
2018-05-24T09:29:07.922Z,16.80
2018-05-24T09:30:07.857Z,16.80
2018-05-24T09:31:05.698Z,16.80
2018-05-24T09:32:05.427Z,16.70
2018-05-24T09:33:06.132Z,16.80
2018-05-24T09:34:05.487Z,16.70
2018-05-24T09:35:13.039Z,16.70
2018-05-24T09:36:08.223Z,16.70
2018-05-24T09:37:05.331Z,16.80
2018-05-24T09:38:08.520Z,16.80
2018-05-24T09:39:07.884Z,16.80
2018-05-24T09:40:05.432Z,16.70
2018-05-24T09:41:05.183Z,16.80
2018-05-24T09:42:06.180Z,16.80
2018-05-24T09:43:08.142Z,16.80
2018-05-24T09:44:08.154Z,16.80
2018-05-24T09:45:08.145Z,16.80
2018-05-24T09:46:05.642Z,16.80
2018-05-24T09:47:08.000Z,16.80
2018-05-24T09:48:05.877Z,16.80
2018-05-24T09:49:05.506Z,16.90
2018-05-24T09:50:06.221Z,16.90
2018-05-24T09:51:05.905Z,16.90
2018-05-24T09:52:05.817Z,16.90
2018-05-24T09:53:10.888Z,16.90
2018-05-24T09:54:05.492Z,16.90
2018-05-24T09:55:05.303Z,16.90
2018-05-24T09:56:08.271Z,17.00
2018-05-24T09:57:05.493Z,16.90
2018-05-24T09:58:05.864Z,17.00
2018-05-24T09:59:05.532Z,17.00
2018-05-24T10:00:05.555Z,17.00
2018-05-24T10:01:05.339Z,17.00
2018-05-24T10:02:06.099Z,17.00
2018-05-24T10:03:05.414Z,16.90
2018-05-24T10:04:06.462Z,16.90
2018-05-24T10:05:12.189Z,16.90
2018-05-24T10:06:08.379Z,16.80
2018-05-24T10:07:08.396Z,16.80
2018-05-24T10:08:06.566Z,16.80
2018-05-24T10:09:10.623Z,16.80
2018-05-24T10:10:11.124Z,16.70
2018-05-24T10:11:08.689Z,16.80
2018-05-24T10:12:05.259Z,16.70
2018-05-24T10:13:06.104Z,16.70
2018-05-24T10:14:08.357Z,16.70
2018-05-24T10:15:05.953Z,16.70
2018-05-24T10:16:08.208Z,16.70
2018-05-24T10:17:05.896Z,16.60
2018-05-24T10:18:08.264Z,16.60
2018-05-24T10:19:06.044Z,16.60
2018-05-24T10:20:06.014Z,16.60
2018-05-24T10:21:10.803Z,16.50
2018-05-24T10:22:05.296Z,16.60
2018-05-24T10:23:06.300Z,16.60
2018-05-24T10:24:08.431Z,16.50
2018-05-24T10:25:06.411Z,16.50
2018-05-24T10:26:07.837Z,16.50
2018-05-24T10:27:18.153Z,16.50
2018-05-24T10:28:05.913Z,16.50
2018-05-24T10:29:10.623Z,16.50
2018-05-24T10:30:05.092Z,16.50
2018-05-24T10:31:05.345Z,16.50
2018-05-24T10:32:05.421Z,16.50
2018-05-24T10:33:16.183Z,16.50
2018-05-24T10:34:08.373Z,16.50
2018-05-24T10:35:13.483Z,16.50
2018-05-24T10:36:08.467Z,16.50
2018-05-24T10:37:13.555Z,16.50
2018-05-24T10:38:06.128Z,16.50
2018-05-24T10:39:06.189Z,16.40
2018-05-24T10:40:08.406Z,16.40
2018-05-24T10:41:07.836Z,16.40
2018-05-24T10:42:05.331Z,16.40
2018-05-24T10:43:05.937Z,16.40
2018-05-24T10:44:08.153Z,16.40
2018-05-24T10:45:05.816Z,16.40
2018-05-24T10:46:05.790Z,16.40
2018-05-24T10:47:05.894Z,16.40
2018-05-24T10:48:08.012Z,16.40
2018-05-24T10:49:05.510Z,16.30
2018-05-24T10:50:13.542Z,16.40
2018-05-24T10:51:06.213Z,16.30
2018-05-24T10:52:11.169Z,16.30
2018-05-24T10:53:05.637Z,16.30
2018-05-24T10:54:07.845Z,16.30
2018-05-24T10:55:10.594Z,16.30
2018-05-24T10:56:08.126Z,16.30
2018-05-24T10:57:05.427Z,16.30
2018-05-24T10:58:05.135Z,16.30
2018-05-24T10:59:08.345Z,16.30
2018-05-24T11:00:08.345Z,16.30
2018-05-24T11:01:05.778Z,16.30
2018-05-24T11:02:05.332Z,16.30
2018-05-24T11:03:08.573Z,16.30
2018-05-24T11:04:06.101Z,16.30
2018-05-24T11:05:11.004Z,16.30
2018-05-24T11:07:08.468Z,16.30
2018-05-24T11:08:10.961Z,16.30
2018-05-24T11:09:05.619Z,16.30
2018-05-24T11:10:05.803Z,16.30
2018-05-24T11:11:05.452Z,16.30
2018-05-24T11:12:08.958Z,16.30
2018-05-24T11:13:06.126Z,16.30
2018-05-24T11:14:05.880Z,16.30
2018-05-24T11:15:13.267Z,16.30
2018-05-24T11:16:07.703Z,16.30
2018-05-24T11:17:07.791Z,16.30
2018-05-24T11:18:05.292Z,16.30
2018-05-24T11:19:08.379Z,16.30
2018-05-24T11:20:05.361Z,16.20
2018-05-24T11:21:10.471Z,16.20
2018-05-24T11:22:05.951Z,16.30
2018-05-24T11:23:05.672Z,16.20
2018-05-24T11:24:08.193Z,16.30
2018-05-24T11:25:08.368Z,16.20
2018-05-24T11:26:08.379Z,16.20
2018-05-24T11:27:08.782Z,16.20
2018-05-24T11:28:05.282Z,16.10
2018-05-24T11:29:05.880Z,16.20
2018-05-24T11:30:05.501Z,16.10
2018-05-24T11:31:07.746Z,16.10
2018-05-24T11:32:05.313Z,16.10
2018-05-24T11:33:08.202Z,16.10
2018-05-24T11:34:08.237Z,16.20
2018-05-24T11:35:05.998Z,16.10
2018-05-24T11:36:05.606Z,16.10
2018-05-24T11:37:05.352Z,16.10
2018-05-24T11:38:05.611Z,16.10
2018-05-24T11:39:10.357Z,16.10
2018-05-24T11:40:05.883Z,16.10
2018-05-24T11:41:08.099Z,16.10
2018-05-24T11:42:08.247Z,16.10
2018-05-24T11:43:08.348Z,16.10
2018-05-24T11:44:06.112Z,16.10
2018-05-24T11:45:06.192Z,16.10
2018-05-24T11:46:08.361Z,16.10
2018-05-24T11:47:08.584Z,16.10
2018-05-24T11:48:06.304Z,16.10
2018-05-24T11:49:06.356Z,16.10
2018-05-24T11:50:05.902Z,16.10
2018-05-24T11:51:05.983Z,16.20
2018-05-24T11:52:05.839Z,16.10
2018-05-24T11:53:06.162Z,16.10
2018-05-24T11:54:08.590Z,16.10
2018-05-24T11:55:08.596Z,16.20
2018-05-24T11:56:08.588Z,16.10
2018-05-24T11:57:08.725Z,16.10
2018-05-24T11:58:05.317Z,16.10
2018-05-24T11:59:05.930Z,16.10
2018-05-24T12:00:05.579Z,16.10
2018-05-24T12:01:05.290Z,16.10
2018-05-24T12:02:15.244Z,16.00
2018-05-24T12:03:05.525Z,16.10
2018-05-24T12:04:07.878Z,16.00
2018-05-24T12:05:05.513Z,16.00
2018-05-24T12:06:05.165Z,16.10
2018-05-24T12:07:10.924Z,16.00
2018-05-24T12:08:08.132Z,16.00
2018-05-24T12:09:05.731Z,16.00
2018-05-24T12:10:05.458Z,16.10
2018-05-24T12:11:08.643Z,16.00
2018-05-24T12:12:06.206Z,16.00
2018-05-24T12:13:08.307Z,16.00
2018-05-24T12:14:06.375Z,16.00
2018-05-24T12:15:05.542Z,16.00
2018-05-24T12:16:10.337Z,16.10
2018-05-24T12:17:06.036Z,16.00
2018-05-24T12:18:05.741Z,16.10
2018-05-24T12:19:06.035Z,16.00
2018-05-24T12:20:10.773Z,16.10
2018-05-24T12:21:07.918Z,16.10
2018-05-24T12:22:07.899Z,16.00
2018-05-24T12:23:05.540Z,16.10
2018-05-24T12:24:05.291Z,16.10
2018-05-24T12:25:05.281Z,16.10
2018-05-24T12:26:10.943Z,16.00
2018-05-24T12:27:07.957Z,16.00
2018-05-24T12:28:08.139Z,16.00
2018-05-24T12:29:05.823Z,16.00
2018-05-24T12:30:06.095Z,16.10
2018-05-24T12:31:08.146Z,16.10
2018-05-24T12:32:08.189Z,16.00
2018-05-24T12:33:05.377Z,16.10
2018-05-24T12:34:05.678Z,16.10
2018-05-24T12:35:10.473Z,16.10
2018-05-24T12:36:05.897Z,16.10
2018-05-24T12:37:05.807Z,16.10
2018-05-24T12:38:05.176Z,16.10
2018-05-24T12:39:08.505Z,16.10
2018-05-24T12:40:08.494Z,16.10
2018-05-24T12:41:06.404Z,16.10
2018-05-24T12:42:06.181Z,16.10
2018-05-24T12:43:05.848Z,16.10
2018-05-24T12:44:05.412Z,16.10
2018-05-24T12:45:05.586Z,16.00
2018-05-24T12:46:05.798Z,16.00
2018-05-24T12:47:07.918Z,16.00
2018-05-24T12:48:05.446Z,16.10
2018-05-24T12:49:05.249Z,16.10
2018-05-24T12:50:08.256Z,16.00
2018-05-24T12:51:05.700Z,16.00
2018-05-24T12:52:05.879Z,16.00
2018-05-24T12:53:08.075Z,16.00